createdAt,value
2017-10-19T00:02:06.361Z,121.73
2017-10-19T00:04:35.714Z,117.33
2017-10-19T00:07:05.459Z,125.43
2017-10-19T00:09:34.141Z,125.30
2017-10-19T00:12:03.074Z,125.77
2017-10-19T00:14:32.570Z,137.70
2017-10-19T00:17:02.298Z,138.57
2017-10-19T00:19:32.261Z,140.67
2017-10-19T00:22:02.581Z,139.13
2017-10-19T00:24:31.067Z,136.17
2017-10-19T00:26:59.248Z,136.03
2017-10-19T00:29:28.431Z,133.10
2017-10-19T00:31:58.371Z,133.03
2017-10-19T00:34:27.772Z,140.77
2017-10-19T00:36:57.340Z,140.73
2017-10-19T00:39:25.367Z,144.43
2017-10-19T00:41:54.418Z,143.97
2017-10-19T00:44:24.007Z,150.23
2017-10-19T00:46:54.911Z,144.67
2017-10-19T00:49:23.915Z,138.43
2017-10-19T00:51:53.330Z,134.10
2017-10-19T00:54:22.115Z,134.07
2017-10-19T00:56:51.227Z,126.73
2017-10-19T00:59:22.747Z,124.77
2017-10-19T01:01:53.159Z,134.70
2017-10-19T01:04:21.687Z,124.93
2017-10-19T01:06:51.180Z,112.87
2017-10-19T01:09:20.410Z,99.63
2017-10-19T01:11:49.588Z,97.73
2017-10-19T01:14:18.283Z,98.07
2017-10-19T01:16:48.210Z,90.33
2017-10-19T01:19:18.731Z,94.50
2017-10-19T01:21:50.094Z,91.30
2017-10-19T01:24:19.110Z,98.17
2017-10-19T01:26:47.911Z,98.07
2017-10-19T01:29:16.352Z,93.20
2017-10-19T01:31:46.470Z,90.83
2017-10-19T01:34:17.256Z,88.97
2017-10-19T01:36:46.318Z,83.23
2017-10-19T01:39:14.406Z,82.27
2017-10-19T01:41:42.892Z,87.40
2017-10-19T01:44:10.970Z,86.53
2017-10-19T01:46:40.654Z,85.27
2017-10-19T01:49:10.439Z,83.73
2017-10-19T01:51:39.830Z,83.20
2017-10-19T01:54:08.048Z,89.87
2017-10-19T01:56:36.381Z,92.67
2017-10-19T01:59:05.732Z,97.37
2017-10-19T02:01:34.608Z,97.80
2017-10-19T02:04:05.246Z,102.63
2017-10-19T02:06:35.650Z,105.03
2017-10-19T02:09:05.699Z,104.53
2017-10-19T02:11:33.955Z,101.30
2017-10-19T02:14:02.083Z,102.33
2017-10-19T02:16:30.572Z,102.90
2017-10-19T02:18:59.475Z,93.20
2017-10-19T02:21:28.376Z,98.47
2017-10-19T02:23:58.047Z,99.50
2017-10-19T02:26:26.807Z,98.80
2017-10-19T02:28:55.990Z,96.03
2017-10-19T02:31:24.271Z,101.10
2017-10-19T02:33:53.418Z,110.80
2017-10-19T02:36:22.343Z,106.90
2017-10-19T02:38:51.536Z,114.83
2017-10-19T02:41:21.464Z,101.20
2017-10-19T02:43:49.835Z,100.77
2017-10-19T02:46:19.527Z,106.57
2017-10-19T02:48:48.142Z,108.63
2017-10-19T02:51:17.294Z,96.27
2017-10-19T02:53:47.112Z,112.40
2017-10-19T02:56:15.874Z,104.70
2017-10-19T02:58:44.138Z,105.63
2017-10-19T03:01:13.475Z,106.13
2017-10-19T03:03:46.206Z,110.10
2017-10-19T03:06:16.370Z,106.40
2017-10-19T03:08:45.960Z,106.60
2017-10-19T03:11:14.760Z,103.17
2017-10-19T03:13:43.320Z,112.17
2017-10-19T03:16:11.986Z,107.50
2017-10-19T03:18:40.475Z,117.47
2017-10-19T03:21:09.159Z,116.43
2017-10-19T03:23:39.540Z,122.80
2017-10-19T03:26:09.383Z,113.13
2017-10-19T03:28:37.746Z,119.10
2017-10-19T03:31:06.579Z,124.73
2017-10-19T03:33:37.047Z,119.37
2017-10-19T03:36:05.363Z,109.07
2017-10-19T03:38:34.102Z,119.43
2017-10-19T03:41:05.199Z,115.47
2017-10-19T03:43:34.016Z,112.73
2017-10-19T03:46:02.051Z,107.53
2017-10-19T03:48:31.357Z,99.93
2017-10-19T03:51:00.652Z,102.57
2017-10-19T03:53:29.334Z,97.07
2017-10-19T03:55:58.759Z,97.00
2017-10-19T03:58:26.915Z,92.90
2017-10-19T04:00:55.095Z,93.90
2017-10-19T04:03:23.714Z,88.67
2017-10-19T04:05:52.403Z,84.83
2017-10-19T04:08:21.691Z,93.30
2017-10-19T04:10:53.222Z,89.33
2017-10-19T04:13:22.955Z,93.83
2017-10-19T04:15:51.867Z,90.60
2017-10-19T04:18:20.666Z,87.97
2017-10-19T04:20:50.708Z,78.33
2017-10-19T04:23:20.834Z,71.40
2017-10-19T04:25:50.142Z,61.97
2017-10-19T04:28:19.926Z,61.20
2017-10-19T04:30:49.098Z,56.57
2017-10-19T04:33:17.506Z,56.37
2017-10-19T04:35:48.833Z,58.33
2017-10-19T04:38:18.172Z,64.50
2017-10-19T04:40:48.290Z,61.47
2017-10-19T04:43:16.871Z,62.97
2017-10-19T04:45:46.228Z,59.63
2017-10-19T04:48:15.835Z,63.60
2017-10-19T04:50:44.062Z,61.63
2017-10-19T04:53:14.590Z,66.80
2017-10-19T04:55:46.231Z,65.57
2017-10-19T04:58:16.880Z,66.60
2017-10-19T05:00:45.527Z,60.10
2017-10-19T05:03:14.198Z,57.47
2017-10-19T05:05:43.028Z,61.60
2017-10-19T05:08:13.405Z,61.90
2017-10-19T05:10:42.155Z,60.30
2017-10-19T05:13:12.306Z,57.27
2017-10-19T05:15:41.003Z,63.17
2017-10-19T05:18:09.779Z,56.90
2017-10-19T05:20:39.223Z,62.73
2017-10-19T05:23:08.419Z,55.30
2017-10-19T05:25:36.967Z,56.53
2017-10-19T05:28:05.627Z,56.97
2017-10-19T05:30:36.610Z,51.30
2017-10-19T05:33:06.105Z,49.77
2017-10-19T05:35:35.372Z,46.77
2017-10-19T05:38:04.848Z,46.37
2017-10-19T05:40:33.480Z,49.17
2017-10-19T05:43:02.396Z,47.80
2017-10-19T05:45:31.058Z,47.90
2017-10-19T05:47:59.652Z,46.87
2017-10-19T05:50:28.383Z,44.73
2017-10-19T05:52:57.678Z,45.03
2017-10-19T05:55:26.467Z,41.03
2017-10-19T05:57:55.193Z,41.43
2017-10-19T06:00:23.950Z,38.57
2017-10-19T06:02:54.149Z,38.93
2017-10-19T06:05:24.263Z,36.60
2017-10-19T06:07:53.776Z,36.17
2017-10-19T06:10:22.091Z,34.87
2017-10-19T06:12:50.911Z,34.33
2017-10-19T06:15:21.132Z,34.27
2017-10-19T06:17:49.663Z,31.50
2017-10-19T06:20:17.703Z,31.10
2017-10-19T06:22:45.684Z,32.90
2017-10-19T06:25:13.734Z,32.03
2017-10-19T06:27:42.052Z,34.73
2017-10-19T06:30:10.686Z,31.17
2017-10-19T06:32:40.645Z,29.43
2017-10-19T06:35:08.947Z,22.47
2017-10-19T06:37:37.026Z,21.10
2017-10-19T06:40:05.230Z,19.13
2017-10-19T06:42:36.075Z,21.17
2017-10-19T06:45:07.339Z,20.43
2017-10-19T06:47:35.955Z,20.10
2017-10-19T06:50:04.802Z,21.30
2017-10-19T06:52:33.919Z,22.17
2017-10-19T06:55:05.480Z,19.60
2017-10-19T06:57:34.148Z,18.57
2017-10-19T07:00:02.632Z,19.33
2017-10-19T07:02:31.073Z,21.00
2017-10-19T07:04:59.683Z,20.20
2017-10-19T07:07:31.453Z,20.07
2017-10-19T07:10:03.947Z,20.73
2017-10-19T07:12:38.895Z,20.73
2017-10-19T07:15:07.559Z,17.40
2017-10-19T07:17:36.296Z,19.40
2017-10-19T07:20:04.871Z,17.23
2017-10-19T07:22:34.133Z,18.07
2017-10-19T07:25:03.028Z,16.83
2017-10-19T07:27:31.695Z,16.20
2017-10-19T07:30:01.883Z,19.20
2017-10-19T07:32:31.904Z,17.60
2017-10-19T07:35:00.656Z,16.60
2017-10-19T07:37:29.017Z,17.37
2017-10-19T07:39:58.595Z,17.63
2017-10-19T07:42:28.116Z,15.73
2017-10-19T07:44:58.800Z,15.10
2017-10-19T07:47:26.904Z,15.60
2017-10-19T07:49:54.903Z,15.70
2017-10-19T07:52:23.811Z,13.20
2017-10-19T07:54:53.443Z,13.80
2017-10-19T07:57:22.756Z,13.10
2017-10-19T07:59:50.903Z,12.80
2017-10-19T08:02:19.511Z,12.77
2017-10-19T08:04:47.732Z,13.20
2017-10-19T08:07:17.308Z,13.30
2017-10-19T08:09:48.029Z,15.93
2017-10-19T08:12:17.951Z,14.47
2017-10-19T08:14:47.590Z,14.07
2017-10-19T08:17:17.192Z,14.07
2017-10-19T08:19:45.963Z,14.27
2017-10-19T08:22:14.359Z,13.33
2017-10-19T08:24:42.425Z,20.80
2017-10-19T08:27:13.782Z,29.93
2017-10-19T08:29:42.527Z,26.30
2017-10-19T08:32:12.187Z,28.07
2017-10-19T08:34:40.840Z,30.97
2017-10-19T08:37:10.168Z,31.47
2017-10-19T08:39:39.574Z,30.27
2017-10-19T08:42:09.455Z,29.30
2017-10-19T08:44:38.771Z,29.80
2017-10-19T08:47:08.541Z,31.87
2017-10-19T08:49:38.317Z,32.40
2017-10-19T08:52:07.014Z,32.00
2017-10-19T08:54:36.872Z,30.90
2017-10-19T08:57:07.528Z,31.03
2017-10-19T08:59:37.118Z,32.20
2017-10-19T09:02:06.225Z,30.40
2017-10-19T09:04:34.864Z,32.17
2017-10-19T09:07:03.970Z,31.00
2017-10-19T09:09:32.980Z,33.03
2017-10-19T09:12:01.218Z,32.87
2017-10-19T09:14:31.379Z,29.97
2017-10-19T09:17:00.122Z,31.60
2017-10-19T09:19:28.127Z,33.07
2017-10-19T09:21:57.123Z,31.87
2017-10-19T09:24:26.083Z,31.53
2017-10-19T09:26:56.303Z,29.63
2017-10-19T09:29:25.392Z,27.57
2017-10-19T09:31:56.170Z,30.83
2017-10-19T09:34:26.851Z,29.00
2017-10-19T09:36:56.655Z,28.40
2017-10-19T09:39:25.132Z,31.03
2017-10-19T09:41:53.989Z,31.30
2017-10-19T09:44:23.460Z,28.83
2017-10-19T09:46:52.583Z,30.67
2017-10-19T09:49:20.786Z,27.93
2017-10-19T09:51:49.167Z,29.23
2017-10-19T09:54:17.658Z,28.30
2017-10-19T09:56:46.596Z,27.77
2017-10-19T09:59:17.032Z,27.77
2017-10-19T10:01:46.466Z,27.50
2017-10-19T10:04:15.224Z,28.37
2017-10-19T10:06:43.859Z,25.93
2017-10-19T10:09:12.171Z,27.10
2017-10-19T10:11:40.795Z,27.50
2017-10-19T10:14:10.775Z,27.07
2017-10-19T10:16:40.314Z,25.70
2017-10-19T10:19:09.229Z,26.70
2017-10-19T10:21:37.478Z,24.57
2017-10-19T10:24:06.410Z,25.27
2017-10-19T10:26:35.039Z,25.90
2017-10-19T10:29:06.507Z,25.10
2017-10-19T10:31:36.262Z,25.50
2017-10-19T10:34:04.952Z,23.67
2017-10-19T10:36:32.987Z,25.27
2017-10-19T10:39:01.814Z,24.13
2017-10-19T10:41:30.640Z,24.30
2017-10-19T10:44:00.604Z,22.17
2017-10-19T10:46:29.936Z,21.90
2017-10-19T10:48:59.406Z,22.13
2017-10-19T10:51:28.270Z,20.90
2017-10-19T10:53:56.403Z,22.30
2017-10-19T10:56:25.029Z,20.77
2017-10-19T10:58:54.050Z,20.67
2017-10-19T11:01:23.982Z,21.60
2017-10-19T11:03:53.056Z,22.20
2017-10-19T11:06:23.353Z,20.40
2017-10-19T11:08:51.735Z,20.30
2017-10-19T11:11:19.877Z,19.90
2017-10-19T11:13:49.427Z,19.83
2017-10-19T11:16:17.906Z,20.70
2017-10-19T11:18:46.727Z,19.83
2017-10-19T11:21:16.780Z,19.30
2017-10-19T11:23:45.735Z,19.77
2017-10-19T11:26:15.112Z,19.83
2017-10-19T11:28:43.527Z,19.17
2017-10-19T11:31:12.378Z,19.87
2017-10-19T11:33:42.154Z,19.97
2017-10-19T11:36:11.076Z,20.37
2017-10-19T11:38:40.175Z,21.47
2017-10-19T11:41:08.434Z,18.67
2017-10-19T11:43:36.756Z,18.70
2017-10-19T11:46:07.099Z,18.57
2017-10-19T11:48:37.375Z,21.23
2017-10-19T11:51:07.391Z,19.40
2017-10-19T11:53:36.004Z,18.67
2017-10-19T11:56:06.838Z,18.63
2017-10-19T11:58:35.186Z,19.50
2017-10-19T12:01:04.358Z,19.87
2017-10-19T12:03:33.182Z,19.97
2017-10-19T12:06:02.416Z,18.37
2017-10-19T12:08:31.154Z,18.33
2017-10-19T12:10:59.838Z,17.70
2017-10-19T12:13:28.780Z,18.43
2017-10-19T12:15:57.962Z,18.87
2017-10-19T12:18:26.865Z,17.37
2017-10-19T12:20:55.170Z,19.23
2017-10-19T12:23:23.524Z,18.10
2017-10-19T12:25:51.848Z,18.43
2017-10-19T12:28:19.825Z,18.40
2017-10-19T12:30:55.499Z,18.53
2017-10-19T12:33:24.393Z,17.87
2017-10-19T12:35:53.444Z,16.40
2017-10-19T12:38:22.843Z,17.30
2017-10-19T12:40:50.979Z,17.50
2017-10-19T12:43:19.511Z,18.00
2017-10-19T12:45:49.576Z,18.50
2017-10-19T12:48:19.142Z,18.63
2017-10-19T12:50:47.811Z,16.27
2017-10-19T12:53:16.722Z,16.90
2017-10-19T12:55:45.123Z,17.00
2017-10-19T12:58:14.330Z,18.07
2017-10-19T13:00:43.817Z,18.23
2017-10-19T13:03:12.133Z,18.07
2017-10-19T13:05:42.058Z,15.97
2017-10-19T13:08:11.506Z,17.10
2017-10-19T13:10:40.964Z,16.80
2017-10-19T13:13:08.973Z,16.03
2017-10-19T13:15:37.692Z,15.53
2017-10-19T13:18:06.740Z,17.10
2017-10-19T13:20:37.967Z,16.13
2017-10-19T13:23:07.403Z,16.90
2017-10-19T13:25:38.112Z,16.77
2017-10-19T13:28:06.449Z,17.47
2017-10-19T13:30:34.664Z,17.07
2017-10-19T13:33:04.186Z,17.63
2017-10-19T13:35:34.666Z,17.27
2017-10-19T13:38:04.604Z,18.27
2017-10-19T13:40:32.802Z,18.20
2017-10-19T13:43:01.192Z,16.37
2017-10-19T13:45:30.162Z,15.40
2017-10-19T13:48:00.612Z,17.37
2017-10-19T13:50:28.722Z,17.33
2017-10-19T13:52:58.974Z,17.67
2017-10-19T13:55:28.919Z,17.20
2017-10-19T13:57:57.750Z,17.60
2017-10-19T14:00:26.014Z,16.87
2017-10-19T14:02:56.757Z,16.67
2017-10-19T14:05:27.720Z,16.57
2017-10-19T14:07:57.317Z,16.27
2017-10-19T14:10:26.682Z,16.37
2017-10-19T14:12:56.327Z,16.00
2017-10-19T14:15:25.226Z,15.47
2017-10-19T14:17:55.004Z,16.40
2017-10-19T14:20:24.584Z,17.20
2017-10-19T14:22:53.798Z,17.50
2017-10-19T14:25:23.470Z,15.27
2017-10-19T14:27:52.106Z,16.43
2017-10-19T14:30:20.807Z,16.23
2017-10-19T14:32:49.346Z,16.60
2017-10-19T14:35:18.008Z,15.50
2017-10-19T14:37:46.343Z,15.57
2017-10-19T14:40:17.084Z,16.97
2017-10-19T14:42:45.839Z,15.77
2017-10-19T14:45:14.920Z,14.53
2017-10-19T14:47:42.924Z,17.40
2017-10-19T14:50:12.215Z,15.83
2017-10-19T14:52:41.571Z,16.57
2017-10-19T14:55:11.436Z,16.03
2017-10-19T14:57:40.779Z,16.97
2017-10-19T15:00:08.972Z,15.40
2017-10-19T15:02:37.248Z,17.60
2017-10-19T15:05:07.098Z,16.03
2017-10-19T15:07:35.708Z,16.40
2017-10-19T15:10:05.497Z,15.80
2017-10-19T15:12:34.488Z,17.87
2017-10-19T15:15:04.343Z,17.67
2017-10-19T15:17:33.298Z,18.33
2017-10-19T15:20:01.296Z,17.97
2017-10-19T15:22:31.363Z,18.00
2017-10-19T15:25:01.169Z,18.77
2017-10-19T15:27:30.919Z,20.17
2017-10-19T15:29:59.583Z,19.27
2017-10-19T15:32:29.389Z,18.53
2017-10-19T15:34:58.315Z,18.23
2017-10-19T15:37:27.149Z,17.70
2017-10-19T15:39:57.680Z,19.07
2017-10-19T15:42:26.768Z,17.40
2017-10-19T15:47:30.955Z,17.63
2017-10-19T15:49:59.147Z,16.80
2017-10-19T15:52:29.056Z,17.67
2017-10-19T15:55:01.182Z,17.00
2017-10-19T15:57:29.810Z,17.73
2017-10-19T15:59:58.427Z,16.20
2017-10-19T16:02:27.146Z,16.93
2017-10-19T16:04:55.771Z,17.10
2017-10-19T16:07:23.851Z,16.40
2017-10-19T16:09:52.724Z,17.17
2017-10-19T16:12:21.434Z,17.17
2017-10-19T16:14:49.701Z,17.30
2017-10-19T16:17:19.416Z,17.73
2017-10-19T16:19:48.544Z,16.50
2017-10-19T16:22:19.366Z,39.20
2017-10-19T16:24:49.586Z,29.73
2017-10-19T16:27:18.971Z,106.37
2017-10-19T16:29:49.588Z,90.57
2017-10-19T16:32:17.855Z,42.30
2017-10-19T16:34:46.199Z,37.07
2017-10-19T16:37:15.539Z,29.53
2017-10-19T16:39:44.702Z,29.37
2017-10-19T16:42:15.347Z,24.70
2017-10-19T16:44:45.522Z,21.23
2017-10-19T16:47:13.847Z,21.90
2017-10-19T16:49:42.451Z,24.57
2017-10-19T16:52:11.171Z,29.60
2017-10-19T16:54:40.607Z,24.53
2017-10-19T16:57:11.557Z,21.27
2017-10-19T16:59:40.374Z,22.50
2017-10-19T17:02:08.622Z,21.70
2017-10-19T17:04:37.179Z,22.50
2017-10-19T17:07:05.594Z,21.03
2017-10-19T17:09:35.332Z,19.93
2017-10-19T17:12:03.533Z,21.63
2017-10-19T17:14:32.992Z,20.67
2017-10-19T17:17:01.868Z,23.53
2017-10-19T17:19:30.518Z,21.77
2017-10-19T17:21:59.666Z,22.73
2017-10-19T17:24:30.031Z,21.13
2017-10-19T17:26:59.730Z,20.97
2017-10-19T17:29:29.046Z,20.13
2017-10-19T17:31:58.572Z,19.07
2017-10-19T17:34:28.126Z,20.70
2017-10-19T17:36:57.927Z,22.00
2017-10-19T17:39:28.464Z,21.73
2017-10-19T17:41:57.004Z,21.63
2017-10-19T17:44:27.640Z,21.20
2017-10-19T17:46:56.246Z,22.67
2017-10-19T17:49:25.319Z,21.10
2017-10-19T17:51:55.003Z,20.37
2017-10-19T17:54:23.563Z,21.83
2017-10-19T17:56:52.462Z,22.00
2017-10-19T17:59:23.429Z,19.77
2017-10-19T18:01:51.652Z,18.03
2017-10-19T18:04:20.648Z,18.50
2017-10-19T18:06:50.503Z,21.17
2017-10-19T18:09:18.710Z,20.33
2017-10-19T18:11:47.090Z,19.77
2017-10-19T18:14:15.931Z,21.20
2017-10-19T18:16:44.106Z,20.30
2017-10-19T18:19:12.211Z,19.40
2017-10-19T18:21:40.310Z,18.93
2017-10-19T18:24:09.699Z,19.97
2017-10-19T18:26:39.829Z,19.50
2017-10-19T18:29:08.795Z,20.73
2017-10-19T18:31:38.080Z,19.17
2017-10-19T18:34:06.643Z,19.80
2017-10-19T18:36:35.017Z,23.00
2017-10-19T18:39:04.923Z,21.30
2017-10-19T18:41:33.863Z,19.73
2017-10-19T18:44:01.890Z,21.37
2017-10-19T18:46:33.103Z,20.93
2017-10-19T18:49:02.795Z,20.20
2017-10-19T18:51:30.870Z,21.33
2017-10-19T18:53:59.368Z,23.73
2017-10-19T18:56:29.427Z,26.87
2017-10-19T18:58:58.939Z,24.23
2017-10-19T19:01:28.391Z,28.20
2017-10-19T19:03:56.828Z,28.67
2017-10-19T19:06:25.168Z,30.77
2017-10-19T19:08:54.181Z,27.33
2017-10-19T19:11:25.358Z,25.40
2017-10-19T19:13:55.908Z,24.03
2017-10-19T19:16:25.316Z,23.97
2017-10-19T19:18:55.984Z,20.60
2017-10-19T19:21:24.884Z,21.40
2017-10-19T19:23:53.758Z,20.93
2017-10-19T19:26:23.407Z,20.13
2017-10-19T19:28:54.886Z,19.50
2017-10-19T19:31:26.047Z,19.13
2017-10-19T19:33:55.726Z,18.93
2017-10-19T19:36:23.863Z,21.50
2017-10-19T19:38:52.232Z,21.33
2017-10-19T19:41:20.927Z,18.67
2017-10-19T19:43:49.339Z,21.93
2017-10-19T19:46:18.259Z,22.67
2017-10-19T19:48:47.172Z,19.53
2017-10-19T19:51:17.011Z,21.73
2017-10-19T19:53:45.131Z,23.53
2017-10-19T19:56:14.002Z,21.80
2017-10-19T19:58:42.958Z,22.63
2017-10-19T20:01:12.874Z,22.37
2017-10-19T20:03:42.339Z,19.40
2017-10-19T20:06:11.168Z,20.77
2017-10-19T20:08:39.840Z,19.97
2017-10-19T20:11:08.459Z,21.93
2017-10-19T20:13:38.292Z,19.50
2017-10-19T20:16:09.179Z,21.20
2017-10-19T20:18:38.578Z,21.30
2017-10-19T20:21:07.149Z,21.63
2017-10-19T20:23:35.592Z,21.33
2017-10-19T20:26:04.338Z,20.17
2017-10-19T20:28:33.664Z,20.17
2017-10-19T20:31:02.774Z,19.50
2017-10-19T20:33:31.571Z,20.03
2017-10-19T20:36:01.851Z,20.43
2017-10-19T20:38:31.878Z,20.57
2017-10-19T20:41:00.102Z,22.07
2017-10-19T20:43:29.622Z,21.67
2017-10-19T20:45:58.435Z,22.10
2017-10-19T20:48:27.623Z,22.30
2017-10-19T20:50:56.531Z,20.17
2017-10-19T20:53:25.644Z,21.70
2017-10-19T20:55:54.008Z,22.03
2017-10-19T20:58:23.497Z,21.27
2017-10-19T21:00:54.202Z,21.07
2017-10-19T21:03:23.819Z,23.10
2017-10-19T21:05:54.112Z,21.20
2017-10-19T21:08:22.270Z,22.50
2017-10-19T21:10:51.190Z,19.53
2017-10-19T21:13:20.680Z,22.87
2017-10-19T21:15:49.879Z,21.37
2017-10-19T21:18:18.062Z,21.07
2017-10-19T21:20:47.434Z,18.77
2017-10-19T21:23:15.574Z,20.03
2017-10-19T21:25:43.807Z,18.87
2017-10-19T21:28:11.976Z,18.53
2017-10-19T21:30:40.612Z,21.03
2017-10-19T21:33:08.816Z,19.60
2017-10-19T21:35:37.950Z,19.33
2017-10-19T21:38:06.610Z,18.93
2017-10-19T21:40:34.775Z,21.27
2017-10-19T21:43:03.826Z,20.47
2017-10-19T21:45:33.908Z,17.57
2017-10-19T21:48:03.733Z,21.37
2017-10-19T21:50:33.666Z,20.97
2017-10-19T21:53:04.879Z,21.10
2017-10-19T22:08:34.590Z,20.83
2017-10-19T22:11:02.734Z,20.53
2017-10-19T22:13:30.804Z,18.83
2017-10-19T22:16:00.057Z,19.17
2017-10-19T22:18:28.657Z,20.80
2017-10-19T22:20:57.754Z,20.70
2017-10-19T22:23:27.216Z,18.73
2017-10-19T22:25:55.218Z,19.87
2017-10-19T22:28:23.222Z,19.53
2017-10-19T22:30:51.309Z,19.40
2017-10-19T22:33:19.710Z,20.50
2017-10-19T22:35:48.377Z,19.60
2017-10-19T22:38:17.317Z,20.60
2017-10-19T22:40:45.263Z,20.40
2017-10-19T22:43:13.262Z,19.33
2017-10-19T22:45:41.909Z,21.87
2017-10-19T22:48:10.542Z,22.07
2017-10-19T22:50:38.557Z,22.10
2017-10-19T22:53:07.286Z,19.73
2017-10-19T22:55:35.958Z,20.80
2017-10-19T22:58:03.969Z,18.57
2017-10-19T23:00:32.860Z,21.83
2017-10-19T23:03:02.119Z,21.57
2017-10-19T23:05:30.070Z,21.27
2017-10-19T23:07:58.750Z,20.77
2017-10-19T23:10:26.927Z,20.93
2017-10-19T23:12:54.906Z,22.33
2017-10-19T23:15:23.735Z,22.03
2017-10-19T23:17:51.756Z,23.03
2017-10-19T23:20:20.052Z,20.53
2017-10-19T23:22:49.517Z,21.30
2017-10-19T23:25:18.250Z,21.33
2017-10-19T23:27:46.262Z,21.57
2017-10-19T23:30:15.082Z,21.60
2017-10-19T23:32:43.638Z,23.90
2017-10-19T23:35:12.281Z,22.10
2017-10-19T23:37:41.004Z,22.47
2017-10-19T23:40:09.521Z,24.13
2017-10-19T23:42:37.590Z,24.13
2017-10-19T23:45:06.421Z,22.53
2017-10-19T23:47:34.968Z,22.70
2017-10-19T23:50:03.364Z,22.10
2017-10-19T23:52:32.122Z,21.13
2017-10-19T23:55:01.382Z,23.07
2017-10-19T23:57:29.346Z,20.20
2017-10-19T23:59:57.425Z,23.40
